Dahlgren, Virginia
Current Conditions -  °F | °C
As of 6:56 PM on Friday 19 Dec 2014 (Local Time) from KNYG Reporting Station
Clear Clear  
Wind Chill: 30°   Ceiling: Unl
Heat Index: 35°   Visibility: 10mi
Dew Point: 22°   Wind: 6mph
Humidity: 59%   Direction: 350°N
Pressure: 30.24"   Gusts: NA
Location:  38.33°N, 77.05°W
Report Text: KNYG 192356Z AUTO 35005KT 10SM CLR 02/M06 A3024 RMK AO2 SLP240 T00171056 10050 20017 53015 $
Loading
Personal Weather Stations






























Interactive Weather Map New forecast layout! Learn more

10-Day Weather Forecast

Advertisements
Track Severe Weather on mobile